Shelagontsy, Russia
Current Conditions -  °F | °C
As of 6:30 PM on Thursday 27 Nov 2014 (Local Time) from UEEE Reporting Station
Clear Clear  
Wind Chill: -35°   Ceiling: Unl
Heat Index: -18°   Visibility: 6mi
Dew Point: -26°   Wind: 7mph
Humidity: 70%   Direction: 270°W
Pressure: 29.94"   Gusts: NA
Location:  66.25°N, 114.28°E
Report Text: UEEE 270930Z 27003MPS CAVOK M28/M32 Q1014 NOSIG RMK QFE75223490150
Loading
Personal Weather Stations






























Interactive Weather Map New forecast layout! Learn more

10-Day Weather Forecast

Advertisements
Track Severe Weather on mobile